UAL2612 KEWR-KMIA
Flight info
| Callsign | UAL2612 |
|---|---|
| Flight time | 2h 39m |
| Altitude | 32000 |
| Route | ELVAE NECCK WHITE Q409 CRPLR PAACK Q97 DEBRL CSTAL3 |
| Aircraft | A21N/M-SDE2E3FGHIJ1RWXY/LB1 |
Departure
| Time | 2026-04-26 07:33 |
|---|---|
| Airport | Newark Liberty International Airport (KEWR) |
Arrival
| Time | 2026-04-26 10:12 |
|---|---|
| Airport | Miami International Airport (KMIA) |
| Time | Latitude | Longitude | Altitude | Speed | Heading |
|---|---|---|---|---|---|
| 2026-04-26 07:02 | 40.69774 | -74.18003 | 28 ft | 0 kts | 66° |
| 2026-04-26 07:18 | 40.69773 | -74.18005 | 27 ft | 2 kts | 66° |
| 2026-04-26 07:18 | 40.69764 | -74.18029 | 27 ft | 3 kts | 59° |
| 2026-04-26 07:19 | 40.69753 | -74.18050 | 27 ft | 3 kts | 40° |
| 2026-04-26 07:19 | 40.69741 | -74.18059 | 27 ft | 4 kts | 347° |
| 2026-04-26 07:19 | 40.69736 | -74.18056 | 27 ft | 0 kts | 302° |
| 2026-04-26 07:22 | 40.69741 | -74.18067 | 27 ft | 5 kts | 302° |
| 2026-04-26 07:22 | 40.69766 | -74.18101 | 27 ft | 6 kts | 327° |
| 2026-04-26 07:22 | 40.69812 | -74.18132 | 27 ft | 9 kts | 333° |
| 2026-04-26 07:22 | 40.69874 | -74.18169 | 27 ft | 10 kts | 347° |
| 2026-04-26 07:23 | 40.69949 | -74.18160 | 27 ft | 11 kts | 10° |
| 2026-04-26 07:23 | 40.70005 | -74.18095 | 27 ft | 12 kts | 91° |
| 2026-04-26 07:23 | 40.69996 | -74.17980 | 27 ft | 13 kts | 92° |
| 2026-04-26 07:23 | 40.69991 | -74.17857 | 27 ft | 14 kts | 96° |
| 2026-04-26 07:24 | 40.69982 | -74.17728 | 27 ft | 15 kts | 95° |
| 2026-04-26 07:24 | 40.69973 | -74.17592 | 27 ft | 15 kts | 95° |
| 2026-04-26 07:24 | 40.69964 | -74.17450 | 27 ft | 16 kts | 97° |
| 2026-04-26 07:24 | 40.69920 | -74.17315 | 27 ft | 16 kts | 122° |
| 2026-04-26 07:25 | 40.69842 | -74.17201 | 27 ft | 17 kts | 136° |
| 2026-04-26 07:25 | 40.69753 | -74.17095 | 27 ft | 18 kts | 143° |
| 2026-04-26 07:25 | 40.69642 | -74.17024 | 27 ft | 18 kts | 156° |
| 2026-04-26 07:25 | 40.69555 | -74.16990 | 27 ft | 7 kts | 165° |
| 2026-04-26 07:26 | 40.69520 | -74.16946 | 27 ft | 8 kts | 117° |
| 2026-04-26 07:26 | 40.69493 | -74.16870 | 28 ft | 11 kts | 115° |
| 2026-04-26 07:26 | 40.69458 | -74.16773 | 28 ft | 12 kts | 115° |
| 2026-04-26 07:26 | 40.69420 | -74.16668 | 28 ft | 13 kts | 115° |
| 2026-04-26 07:27 | 40.69342 | -74.16640 | 28 ft | 14 kts | 205° |
| 2026-04-26 07:27 | 40.69254 | -74.16698 | 29 ft | 15 kts | 205° |
| 2026-04-26 07:27 | 40.69159 | -74.16754 | 28 ft | 15 kts | 204° |
| 2026-04-26 07:27 | 40.69061 | -74.16814 | 28 ft | 16 kts | 205° |
| 2026-04-26 07:28 | 40.68959 | -74.16878 | 27 ft | 16 kts | 205° |
| 2026-04-26 07:28 | 40.68855 | -74.16944 | 27 ft | 17 kts | 205° |
| 2026-04-26 07:28 | 40.68748 | -74.17012 | 28 ft | 18 kts | 206° |
| 2026-04-26 07:28 | 40.68636 | -74.17086 | 28 ft | 18 kts | 207° |
| 2026-04-26 07:29 | 40.68524 | -74.17161 | 28 ft | 19 kts | 206° |
| 2026-04-26 07:29 | 40.68404 | -74.17236 | 28 ft | 19 kts | 205° |
| 2026-04-26 07:29 | 40.68283 | -74.17311 | 28 ft | 19 kts | 205° |
| 2026-04-26 07:29 | 40.68160 | -74.17388 | 27 ft | 20 kts | 205° |
| 2026-04-26 07:30 | 40.68064 | -74.17449 | 26 ft | 9 kts | 205° |
| 2026-04-26 07:30 | 40.68004 | -74.17486 | 26 ft | 10 kts | 205° |
| 2026-04-26 07:30 | 40.67937 | -74.17528 | 26 ft | 11 kts | 206° |
| 2026-04-26 07:30 | 40.67866 | -74.17573 | 26 ft | 12 kts | 205° |
| 2026-04-26 07:31 | 40.67838 | -74.17575 | 26 ft | 4 kts | 149° |
| 2026-04-26 07:31 | 40.67815 | -74.17529 | 26 ft | 7 kts | 118° |
| 2026-04-26 07:31 | 40.67791 | -74.17470 | 25 ft | 8 kts | 118° |
| 2026-04-26 07:31 | 40.67793 | -74.17404 | 25 ft | 9 kts | 43° |
| 2026-04-26 07:32 | 40.67850 | -74.17365 | 25 ft | 10 kts | 25° |
| 2026-04-26 07:32 | 40.68067 | -74.17229 | 26 ft | 66 kts | 26° |
| 2026-04-26 07:32 | 40.68665 | -74.16849 | 27 ft | 126 kts | 26° |
| 2026-04-26 07:32 | 40.69633 | -74.16239 | 93 ft | 174 kts | 26° |
| 2026-04-26 07:33 | 40.70685 | -74.15572 | 950 ft | 166 kts | 27° |
| 2026-04-26 07:33 | 40.71754 | -74.14886 | 1544 ft | 176 kts | 26° |
| 2026-04-26 07:33 | 40.72849 | -74.14045 | 1955 ft | 189 kts | 38° |
| 2026-04-26 07:33 | 40.73687 | -74.12647 | 2348 ft | 204 kts | 64° |
| 2026-04-26 07:34 | 40.74289 | -74.10836 | 2638 ft | 227 kts | 67° |
| 2026-04-26 07:34 | 40.75004 | -74.08898 | 3114 ft | 243 kts | 54° |
| 2026-04-26 07:34 | 40.76354 | -74.07526 | 3800 ft | 252 kts | 24° |
| 2026-04-26 07:34 | 40.78094 | -74.07144 | 4518 ft | 261 kts | 358° |
| 2026-04-26 07:35 | 40.79850 | -74.07854 | 5219 ft | 271 kts | 330° |
| 2026-04-26 07:35 | 40.81326 | -74.09430 | 5941 ft | 276 kts | 318° |
| 2026-04-26 07:35 | 40.82721 | -74.11188 | 6643 ft | 279 kts | 317° |
| 2026-04-26 07:35 | 40.83944 | -74.13185 | 7283 ft | 284 kts | 296° |
| 2026-04-26 07:36 | 40.84545 | -74.15669 | 7950 ft | 285 kts | 279° |
| 2026-04-26 07:36 | 40.84770 | -74.18259 | 8633 ft | 283 kts | 262° |
| 2026-04-26 07:36 | 40.84261 | -74.20726 | 9300 ft | 279 kts | 239° |
| 2026-04-26 07:36 | 40.83072 | -74.22713 | 9956 ft | 276 kts | 218° |
| 2026-04-26 07:37 | 40.81387 | -74.23984 | 10351 ft | 288 kts | 198° |
| 2026-04-26 07:37 | 40.79355 | -74.24452 | 10615 ft | 306 kts | 187° |
| 2026-04-26 07:37 | 40.77197 | -74.24671 | 10861 ft | 324 kts | 186° |
| 2026-04-26 07:37 | 40.74863 | -74.24920 | 11085 ft | 341 kts | 187° |
| 2026-04-26 07:38 | 40.72445 | -74.25214 | 11298 ft | 357 kts | 188° |
| 2026-04-26 07:38 | 40.69950 | -74.25546 | 11509 ft | 373 kts | 188° |
| 2026-04-26 07:38 | 40.67288 | -74.25911 | 11717 ft | 387 kts | 189° |
| 2026-04-26 07:38 | 40.64577 | -74.26286 | 12061 ft | 395 kts | 189° |
| 2026-04-26 07:39 | 40.61862 | -74.26665 | 12503 ft | 399 kts | 189° |
| 2026-04-26 07:39 | 40.59097 | -74.27043 | 12971 ft | 402 kts | 189° |
| 2026-04-26 07:39 | 40.56267 | -74.27382 | 13439 ft | 406 kts | 185° |
| 2026-04-26 07:39 | 40.53470 | -74.27056 | 13898 ft | 414 kts | 170° |
| 2026-04-26 07:40 | 40.50723 | -74.25859 | 14365 ft | 419 kts | 162° |
| 2026-04-26 07:40 | 40.48001 | -74.24456 | 14816 ft | 422 kts | 161° |
| 2026-04-26 07:40 | 40.45260 | -74.23046 | 15299 ft | 424 kts | 162° |
| 2026-04-26 07:40 | 40.42495 | -74.21652 | 15802 ft | 427 kts | 162° |
| 2026-04-26 07:41 | 40.39712 | -74.20265 | 16305 ft | 429 kts | 162° |
| 2026-04-26 07:41 | 40.36910 | -74.18869 | 16796 ft | 432 kts | 162° |
| 2026-04-26 07:41 | 40.34080 | -74.17523 | 17265 ft | 433 kts | 166° |
| 2026-04-26 07:41 | 40.31149 | -74.16757 | 17707 ft | 430 kts | 178° |
| 2026-04-26 07:42 | 40.28161 | -74.16882 | 18143 ft | 428 kts | 191° |
| 2026-04-26 07:42 | 40.25246 | -74.17685 | 18584 ft | 429 kts | 196° |
| 2026-04-26 07:42 | 40.22336 | -74.18607 | 19005 ft | 431 kts | 196° |
| 2026-04-26 07:42 | 40.19410 | -74.19523 | 19397 ft | 434 kts | 196° |
| 2026-04-26 07:43 | 40.16454 | -74.20428 | 19777 ft | 437 kts | 195° |
| 2026-04-26 07:43 | 40.13483 | -74.21333 | 20166 ft | 439 kts | 195° |
| 2026-04-26 07:43 | 40.10500 | -74.22238 | 20539 ft | 442 kts | 195° |
| 2026-04-26 07:43 | 40.07498 | -74.23141 | 20912 ft | 444 kts | 195° |
| 2026-04-26 07:44 | 40.04473 | -74.24046 | 21286 ft | 447 kts | 195° |
| 2026-04-26 07:44 | 40.01494 | -74.25190 | 21664 ft | 447 kts | 204° |
| 2026-04-26 07:44 | 39.98725 | -74.27002 | 22043 ft | 445 kts | 214° |
| 2026-04-26 07:44 | 39.96192 | -74.29314 | 22423 ft | 446 kts | 218° |
| 2026-04-26 07:45 | 39.93690 | -74.31740 | 22785 ft | 449 kts | 219° |
| 2026-04-26 07:45 | 39.91181 | -74.34171 | 23142 ft | 451 kts | 218° |
| 2026-04-26 07:45 | 39.88653 | -74.36596 | 23484 ft | 453 kts | 218° |
| 2026-04-26 07:45 | 39.86100 | -74.39029 | 23823 ft | 455 kts | 218° |
| 2026-04-26 07:46 | 39.83542 | -74.41461 | 24189 ft | 455 kts | 218° |
| 2026-04-26 07:46 | 39.81097 | -74.44048 | 24636 ft | 452 kts | 225° |
| 2026-04-26 07:46 | 39.78884 | -74.46926 | 25124 ft | 448 kts | 227° |
| 2026-04-26 07:46 | 39.76720 | -74.49809 | 25620 ft | 444 kts | 227° |
| 2026-04-26 07:47 | 39.74572 | -74.52677 | 26124 ft | 441 kts | 227° |
| 2026-04-26 07:47 | 39.72437 | -74.55513 | 26619 ft | 438 kts | 227° |
| 2026-04-26 07:47 | 39.70310 | -74.58332 | 27088 ft | 435 kts | 227° |
| 2026-04-26 07:47 | 39.68202 | -74.61120 | 27592 ft | 431 kts | 228° |
| 2026-04-26 07:48 | 39.66105 | -74.63890 | 28055 ft | 428 kts | 228° |
| 2026-04-26 07:48 | 39.64035 | -74.66621 | 28493 ft | 424 kts | 228° |
| 2026-04-26 07:48 | 39.61973 | -74.69340 | 28900 ft | 421 kts | 228° |
| 2026-04-26 07:48 | 39.59926 | -74.72040 | 29297 ft | 418 kts | 228° |
| 2026-04-26 07:49 | 39.57891 | -74.74719 | 29687 ft | 416 kts | 228° |
| 2026-04-26 07:49 | 39.55867 | -74.77382 | 30073 ft | 413 kts | 228° |
| 2026-04-26 07:49 | 39.53887 | -74.79986 | 30417 ft | 410 kts | 228° |
| 2026-04-26 07:50 | 39.49864 | -74.85264 | 31065 ft | 407 kts | 228° |
| 2026-04-26 07:50 | 39.48550 | -74.86986 | 31241 ft | 406 kts | 228° |
| 2026-04-26 07:50 | 39.46569 | -74.89583 | 31522 ft | 405 kts | 228° |
| 2026-04-26 07:50 | 39.43952 | -74.93006 | 31874 ft | 402 kts | 228° |
| 2026-04-26 07:51 | 39.41984 | -74.95573 | 32035 ft | 402 kts | 228° |
| 2026-04-26 07:51 | 39.40015 | -74.98147 | 32052 ft | 402 kts | 228° |
| 2026-04-26 07:51 | 39.36101 | -75.03271 | 32026 ft | 401 kts | 228° |
| 2026-04-26 07:52 | 39.32830 | -75.07524 | 32020 ft | 401 kts | 228° |
| 2026-04-26 07:52 | 39.28829 | -75.12573 | 32021 ft | 403 kts | 225° |
| 2026-04-26 07:53 | 39.24678 | -75.17437 | 32020 ft | 403 kts | 225° |
| 2026-04-26 07:53 | 39.20519 | -75.22294 | 32010 ft | 404 kts | 225° |
| 2026-04-26 07:54 | 39.16360 | -75.27143 | 32010 ft | 403 kts | 225° |
| 2026-04-26 07:54 | 39.12206 | -75.31988 | 32011 ft | 403 kts | 225° |
| 2026-04-26 07:55 | 39.08042 | -75.36836 | 32005 ft | 404 kts | 225° |
| 2026-04-26 07:55 | 39.03775 | -75.41545 | 31998 ft | 407 kts | 218° |
| 2026-04-26 07:56 | 38.98587 | -75.44531 | 32000 ft | 421 kts | 198° |
| 2026-04-26 07:56 | 38.92667 | -75.45478 | 32003 ft | 428 kts | 192° |
| 2026-04-26 07:57 | 38.86790 | -75.46225 | 32000 ft | 427 kts | 192° |
| 2026-04-26 07:57 | 38.80891 | -75.47031 | 32001 ft | 427 kts | 192° |
| 2026-04-26 07:58 | 38.74980 | -75.47835 | 31997 ft | 427 kts | 192° |
| 2026-04-26 07:58 | 38.69071 | -75.48644 | 32000 ft | 427 kts | 192° |
| 2026-04-26 07:59 | 38.63146 | -75.49444 | 32000 ft | 428 kts | 192° |
| 2026-04-26 07:59 | 38.57216 | -75.50253 | 31994 ft | 429 kts | 192° |
| 2026-04-26 08:00 | 38.51282 | -75.51056 | 31995 ft | 429 kts | 192° |
| 2026-04-26 08:00 | 38.45350 | -75.51858 | 31982 ft | 429 kts | 192° |
| 2026-04-26 08:01 | 38.39408 | -75.52662 | 31976 ft | 429 kts | 192° |
| 2026-04-26 08:01 | 38.33624 | -75.54150 | 31966 ft | 419 kts | 206° |
| 2026-04-26 08:02 | 38.28670 | -75.57847 | 31973 ft | 412 kts | 218° |
| 2026-04-26 08:02 | 38.23969 | -75.62034 | 31983 ft | 413 kts | 218° |
| 2026-04-26 08:03 | 38.19232 | -75.66184 | 31991 ft | 414 kts | 218° |
| 2026-04-26 08:03 | 38.14472 | -75.70321 | 31991 ft | 414 kts | 218° |
| 2026-04-26 08:04 | 38.09712 | -75.74449 | 31981 ft | 414 kts | 218° |
| 2026-04-26 08:04 | 38.04946 | -75.78578 | 31976 ft | 415 kts | 218° |
| 2026-04-26 08:05 | 38.00177 | -75.82701 | 31970 ft | 415 kts | 218° |
| 2026-04-26 08:05 | 37.95401 | -75.86826 | 31957 ft | 415 kts | 218° |
| 2026-04-26 08:06 | 37.90622 | -75.90944 | 31948 ft | 415 kts | 218° |
| 2026-04-26 08:06 | 37.85872 | -75.95031 | 31937 ft | 415 kts | 218° |
| 2026-04-26 08:07 | 37.81064 | -75.99164 | 31943 ft | 415 kts | 218° |
| 2026-04-26 08:07 | 37.76314 | -76.03239 | 31941 ft | 415 kts | 218° |
| 2026-04-26 08:08 | 37.71529 | -76.07336 | 31945 ft | 415 kts | 218° |
| 2026-04-26 08:08 | 37.66747 | -76.11425 | 31948 ft | 416 kts | 218° |
| 2026-04-26 08:09 | 37.61954 | -76.15517 | 31958 ft | 416 kts | 217° |
| 2026-04-26 08:09 | 37.56909 | -76.19148 | 31962 ft | 419 kts | 212° |
| 2026-04-26 08:10 | 37.51760 | -76.22561 | 31959 ft | 419 kts | 212° |
| 2026-04-26 08:10 | 37.46605 | -76.25981 | 31964 ft | 419 kts | 212° |
| 2026-04-26 08:11 | 37.41454 | -76.29399 | 31963 ft | 418 kts | 212° |
| 2026-04-26 08:11 | 37.36305 | -76.32815 | 31959 ft | 419 kts | 212° |
| 2026-04-26 08:12 | 37.31148 | -76.36230 | 31959 ft | 419 kts | 212° |
| 2026-04-26 08:12 | 37.25995 | -76.39637 | 31946 ft | 419 kts | 212° |
| 2026-04-26 08:13 | 37.20842 | -76.43036 | 31944 ft | 419 kts | 211° |
| 2026-04-26 08:13 | 37.15679 | -76.46432 | 31947 ft | 419 kts | 211° |
| 2026-04-26 08:14 | 37.10517 | -76.49832 | 31949 ft | 419 kts | 211° |
| 2026-04-26 08:14 | 37.05350 | -76.53224 | 31943 ft | 419 kts | 211° |
| 2026-04-26 08:15 | 37.00178 | -76.56615 | 31937 ft | 420 kts | 211° |
| 2026-04-26 08:15 | 36.94997 | -76.60009 | 31943 ft | 420 kts | 211° |
| 2026-04-26 08:16 | 36.89857 | -76.63368 | 31936 ft | 421 kts | 211° |
| 2026-04-26 08:16 | 36.84666 | -76.66756 | 31943 ft | 420 kts | 211° |
| 2026-04-26 08:17 | 36.79480 | -76.70140 | 31938 ft | 421 kts | 211° |
| 2026-04-26 08:17 | 36.74291 | -76.73511 | 31943 ft | 420 kts | 211° |
| 2026-04-26 08:18 | 36.69098 | -76.76882 | 31943 ft | 421 kts | 211° |
| 2026-04-26 08:18 | 36.63911 | -76.80246 | 31944 ft | 421 kts | 211° |
| 2026-04-26 08:19 | 36.58722 | -76.83611 | 31942 ft | 421 kts | 211° |
| 2026-04-26 08:19 | 36.53517 | -76.86976 | 31945 ft | 421 kts | 211° |
| 2026-04-26 08:20 | 36.48312 | -76.90335 | 31943 ft | 421 kts | 211° |
| 2026-04-26 08:20 | 36.43108 | -76.93688 | 31930 ft | 421 kts | 211° |
| 2026-04-26 08:21 | 36.37907 | -76.97038 | 31928 ft | 421 kts | 211° |
| 2026-04-26 08:21 | 36.32701 | -77.00391 | 31928 ft | 421 kts | 211° |
| 2026-04-26 08:22 | 36.27520 | -77.03710 | 31923 ft | 422 kts | 211° |
| 2026-04-26 08:22 | 36.22277 | -77.07071 | 31925 ft | 422 kts | 211° |
| 2026-04-26 08:23 | 36.17092 | -77.10390 | 31917 ft | 422 kts | 211° |
| 2026-04-26 08:23 | 36.11875 | -77.13726 | 31920 ft | 422 kts | 211° |
| 2026-04-26 08:24 | 36.06656 | -77.17055 | 31925 ft | 422 kts | 211° |
| 2026-04-26 08:24 | 36.01438 | -77.20380 | 31923 ft | 422 kts | 211° |
| 2026-04-26 08:25 | 35.96207 | -77.23706 | 31919 ft | 424 kts | 211° |
| 2026-04-26 08:25 | 35.91157 | -77.27419 | 31922 ft | 421 kts | 220° |
| 2026-04-26 08:26 | 35.86553 | -77.31875 | 31921 ft | 420 kts | 221° |
| 2026-04-26 08:26 | 35.81954 | -77.36346 | 31926 ft | 421 kts | 220° |
| 2026-04-26 08:27 | 35.77343 | -77.40797 | 31916 ft | 421 kts | 220° |
| 2026-04-26 08:27 | 35.72722 | -77.45235 | 31908 ft | 421 kts | 220° |
| 2026-04-26 08:28 | 35.68100 | -77.49674 | 31909 ft | 421 kts | 220° |
| 2026-04-26 08:28 | 35.63474 | -77.54110 | 31906 ft | 421 kts | 220° |
| 2026-04-26 08:29 | 35.58855 | -77.58533 | 31911 ft | 421 kts | 220° |
| 2026-04-26 08:29 | 35.54228 | -77.62960 | 31912 ft | 421 kts | 220° |
| 2026-04-26 08:30 | 35.49604 | -77.67375 | 31922 ft | 421 kts | 220° |
| 2026-04-26 08:30 | 35.44977 | -77.71783 | 31923 ft | 421 kts | 220° |
| 2026-04-26 08:31 | 35.40356 | -77.76184 | 31930 ft | 421 kts | 220° |
| 2026-04-26 08:31 | 35.35716 | -77.80586 | 31931 ft | 421 kts | 220° |
| 2026-04-26 08:32 | 35.31088 | -77.84977 | 31934 ft | 421 kts | 220° |
| 2026-04-26 08:32 | 35.26450 | -77.89370 | 31926 ft | 421 kts | 220° |
| 2026-04-26 08:33 | 35.21818 | -77.93758 | 31915 ft | 421 kts | 220° |
| 2026-04-26 08:33 | 35.17176 | -77.98137 | 31913 ft | 421 kts | 220° |
| 2026-04-26 08:34 | 35.12536 | -78.02514 | 31919 ft | 422 kts | 220° |
| 2026-04-26 08:34 | 35.07922 | -78.06860 | 31923 ft | 422 kts | 220° |
| 2026-04-26 08:35 | 35.03271 | -78.11241 | 31925 ft | 422 kts | 220° |
| 2026-04-26 08:35 | 34.98623 | -78.15603 | 31914 ft | 421 kts | 220° |
| 2026-04-26 08:36 | 34.93950 | -78.19983 | 31923 ft | 421 kts | 220° |
| 2026-04-26 08:36 | 34.89340 | -78.24304 | 31921 ft | 421 kts | 220° |
| 2026-04-26 08:37 | 34.84694 | -78.28645 | 31923 ft | 421 kts | 220° |
| 2026-04-26 08:37 | 34.80039 | -78.32995 | 31924 ft | 422 kts | 220° |
| 2026-04-26 08:38 | 34.75387 | -78.37336 | 31922 ft | 421 kts | 220° |
| 2026-04-26 08:38 | 34.70734 | -78.41664 | 31915 ft | 421 kts | 220° |
| 2026-04-26 08:39 | 34.66083 | -78.45990 | 31911 ft | 421 kts | 220° |
| 2026-04-26 08:39 | 34.61429 | -78.50311 | 31910 ft | 421 kts | 220° |
| 2026-04-26 08:40 | 34.57531 | -78.53923 | 31921 ft | 421 kts | 220° |
| 2026-04-26 08:40 | 34.52871 | -78.58243 | 31921 ft | 421 kts | 220° |
| 2026-04-26 08:41 | 34.48210 | -78.62545 | 31923 ft | 422 kts | 220° |
| 2026-04-26 08:41 | 34.43566 | -78.66839 | 31915 ft | 422 kts | 220° |
| 2026-04-26 08:42 | 34.38813 | -78.71107 | 31909 ft | 423 kts | 218° |
| 2026-04-26 08:42 | 34.33993 | -78.75132 | 31913 ft | 424 kts | 217° |
| 2026-04-26 08:43 | 34.29143 | -78.79178 | 31911 ft | 423 kts | 217° |
| 2026-04-26 08:43 | 34.24280 | -78.83213 | 31910 ft | 423 kts | 217° |
| 2026-04-26 08:44 | 34.19434 | -78.87238 | 31909 ft | 423 kts | 217° |
| 2026-04-26 08:44 | 34.14574 | -78.91282 | 31910 ft | 424 kts | 217° |
| 2026-04-26 08:45 | 34.09710 | -78.95323 | 31903 ft | 425 kts | 217° |
| 2026-04-26 08:45 | 34.04845 | -78.99358 | 31901 ft | 425 kts | 217° |
| 2026-04-26 08:46 | 33.99974 | -79.03391 | 31900 ft | 425 kts | 217° |
| 2026-04-26 08:46 | 33.95098 | -79.07425 | 31902 ft | 426 kts | 217° |
| 2026-04-26 08:47 | 33.90213 | -79.11462 | 31900 ft | 426 kts | 217° |
| 2026-04-26 08:47 | 33.85352 | -79.15473 | 31905 ft | 426 kts | 217° |
| 2026-04-26 08:48 | 33.80461 | -79.19501 | 31912 ft | 426 kts | 217° |
| 2026-04-26 08:48 | 33.75566 | -79.23529 | 31912 ft | 426 kts | 217° |
| 2026-04-26 08:49 | 33.70662 | -79.27561 | 31910 ft | 427 kts | 217° |
| 2026-04-26 08:49 | 33.65772 | -79.31600 | 31910 ft | 427 kts | 218° |
| 2026-04-26 08:50 | 33.60936 | -79.35729 | 31903 ft | 427 kts | 218° |
| 2026-04-26 08:50 | 33.56102 | -79.39841 | 31902 ft | 426 kts | 218° |
| 2026-04-26 08:51 | 33.48828 | -79.46006 | 31897 ft | 427 kts | 218° |
| 2026-04-26 08:52 | 33.44015 | -79.50080 | 31900 ft | 426 kts | 218° |
| 2026-04-26 08:52 | 33.39168 | -79.54172 | 31899 ft | 426 kts | 217° |
| 2026-04-26 08:53 | 33.34319 | -79.58262 | 31899 ft | 426 kts | 218° |
| 2026-04-26 08:53 | 33.29468 | -79.62351 | 31900 ft | 426 kts | 218° |
| 2026-04-26 08:54 | 33.24614 | -79.66432 | 31890 ft | 427 kts | 218° |
| 2026-04-26 08:54 | 33.19759 | -79.70514 | 31891 ft | 427 kts | 217° |
| 2026-04-26 08:55 | 33.14902 | -79.74601 | 31883 ft | 427 kts | 218° |
| 2026-04-26 08:55 | 33.10036 | -79.78677 | 31879 ft | 427 kts | 217° |
| 2026-04-26 08:56 | 33.05177 | -79.82743 | 31879 ft | 427 kts | 217° |
| 2026-04-26 08:56 | 33.00316 | -79.86805 | 31880 ft | 427 kts | 217° |
| 2026-04-26 08:57 | 32.95442 | -79.90844 | 31880 ft | 427 kts | 217° |
| 2026-04-26 08:57 | 32.90577 | -79.94897 | 31879 ft | 427 kts | 217° |
| 2026-04-26 08:58 | 32.85710 | -79.98951 | 31881 ft | 427 kts | 217° |
| 2026-04-26 08:58 | 32.80840 | -80.02998 | 31880 ft | 427 kts | 217° |
| 2026-04-26 08:59 | 32.75966 | -80.07039 | 31881 ft | 427 kts | 217° |
| 2026-04-26 08:59 | 32.71093 | -80.11077 | 31880 ft | 427 kts | 217° |
| 2026-04-26 09:00 | 32.66214 | -80.15118 | 31880 ft | 428 kts | 217° |
| 2026-04-26 09:00 | 32.61336 | -80.19148 | 31879 ft | 427 kts | 217° |
| 2026-04-26 09:01 | 32.56467 | -80.23170 | 31880 ft | 427 kts | 217° |
| 2026-04-26 09:01 | 32.51551 | -80.27127 | 31877 ft | 428 kts | 213° |
| 2026-04-26 09:02 | 32.46341 | -80.30476 | 31887 ft | 429 kts | 211° |
| 2026-04-26 09:02 | 32.41072 | -80.33793 | 31880 ft | 429 kts | 211° |
| 2026-04-26 09:03 | 32.35810 | -80.37118 | 31880 ft | 429 kts | 211° |
| 2026-04-26 09:03 | 32.30546 | -80.40443 | 31879 ft | 430 kts | 211° |
| 2026-04-26 09:04 | 32.25265 | -80.43773 | 31879 ft | 430 kts | 211° |
| 2026-04-26 09:04 | 32.19978 | -80.47102 | 31880 ft | 430 kts | 211° |
| 2026-04-26 09:05 | 32.14702 | -80.50422 | 31881 ft | 430 kts | 211° |
| 2026-04-26 09:05 | 32.09413 | -80.53745 | 31879 ft | 430 kts | 211° |
| 2026-04-26 09:06 | 32.04125 | -80.57057 | 31876 ft | 431 kts | 211° |
| 2026-04-26 09:06 | 31.98821 | -80.60379 | 31874 ft | 432 kts | 211° |
| 2026-04-26 09:07 | 31.93499 | -80.63709 | 31880 ft | 434 kts | 211° |
| 2026-04-26 09:07 | 31.88167 | -80.67034 | 31881 ft | 434 kts | 211° |
| 2026-04-26 09:08 | 31.82824 | -80.70370 | 31880 ft | 435 kts | 211° |
| 2026-04-26 09:08 | 31.77480 | -80.73695 | 31862 ft | 435 kts | 211° |
| 2026-04-26 09:09 | 31.72120 | -80.77032 | 31857 ft | 436 kts | 211° |
| 2026-04-26 09:09 | 31.66754 | -80.80371 | 31861 ft | 436 kts | 211° |
| 2026-04-26 09:10 | 31.61382 | -80.83703 | 31863 ft | 437 kts | 211° |
| 2026-04-26 09:10 | 31.55997 | -80.87038 | 31858 ft | 438 kts | 211° |
| 2026-04-26 09:11 | 31.50607 | -80.90375 | 31857 ft | 439 kts | 211° |
| 2026-04-26 09:11 | 31.45201 | -80.93709 | 31862 ft | 439 kts | 211° |
| 2026-04-26 09:12 | 31.39828 | -80.97022 | 31868 ft | 440 kts | 212° |
| 2026-04-26 09:12 | 31.34423 | -81.00361 | 31866 ft | 440 kts | 211° |
| 2026-04-26 09:13 | 31.28995 | -81.03704 | 31871 ft | 441 kts | 211° |
| 2026-04-26 09:13 | 31.23185 | -81.06098 | 31870 ft | 452 kts | 192° |
| 2026-04-26 09:14 | 31.16853 | -81.06372 | 31882 ft | 457 kts | 185° |
| 2026-04-26 09:14 | 31.10496 | -81.06446 | 31887 ft | 457 kts | 185° |
| 2026-04-26 09:15 | 31.04143 | -81.06562 | 31888 ft | 456 kts | 185° |
| 2026-04-26 09:15 | 30.97794 | -81.06689 | 31887 ft | 456 kts | 185° |
| 2026-04-26 09:16 | 30.91444 | -81.06820 | 31888 ft | 456 kts | 185° |
| 2026-04-26 09:16 | 30.85095 | -81.06948 | 31897 ft | 456 kts | 185° |
| 2026-04-26 09:17 | 30.78741 | -81.07079 | 31901 ft | 457 kts | 185° |
| 2026-04-26 09:17 | 30.72389 | -81.07210 | 31902 ft | 457 kts | 185° |
| 2026-04-26 09:18 | 30.66031 | -81.07341 | 31910 ft | 457 kts | 185° |
| 2026-04-26 09:18 | 30.59684 | -81.07586 | 31911 ft | 456 kts | 187° |
| 2026-04-26 09:19 | 30.53347 | -81.07963 | 31911 ft | 456 kts | 187° |
| 2026-04-26 09:19 | 30.47008 | -81.08347 | 31911 ft | 457 kts | 187° |
| 2026-04-26 09:20 | 30.40665 | -81.08731 | 31910 ft | 457 kts | 187° |
| 2026-04-26 09:20 | 30.34315 | -81.09114 | 31904 ft | 457 kts | 187° |
| 2026-04-26 09:21 | 30.27965 | -81.09491 | 31906 ft | 457 kts | 187° |
| 2026-04-26 09:21 | 30.21650 | -81.09865 | 31908 ft | 457 kts | 187° |
| 2026-04-26 09:22 | 30.15292 | -81.10243 | 31911 ft | 457 kts | 187° |
| 2026-04-26 09:22 | 30.08942 | -81.10627 | 31913 ft | 457 kts | 187° |
| 2026-04-26 09:23 | 30.02590 | -81.11008 | 31921 ft | 458 kts | 187° |
| 2026-04-26 09:23 | 29.96223 | -81.11388 | 31917 ft | 458 kts | 187° |
| 2026-04-26 09:24 | 29.89851 | -81.11767 | 31923 ft | 459 kts | 187° |
| 2026-04-26 09:24 | 29.83468 | -81.12148 | 31919 ft | 459 kts | 187° |
| 2026-04-26 09:25 | 29.77069 | -81.12282 | 31921 ft | 461 kts | 184° |
| 2026-04-26 09:25 | 29.70662 | -81.12312 | 31922 ft | 461 kts | 184° |
| 2026-04-26 09:26 | 29.64292 | -81.12344 | 31929 ft | 460 kts | 184° |
| 2026-04-26 09:26 | 29.57884 | -81.12377 | 31926 ft | 460 kts | 185° |
| 2026-04-26 09:27 | 29.51490 | -81.12595 | 31922 ft | 459 kts | 186° |
| 2026-04-26 09:27 | 29.45105 | -81.12837 | 31922 ft | 460 kts | 186° |
| 2026-04-26 09:28 | 29.38716 | -81.13075 | 31922 ft | 459 kts | 186° |
| 2026-04-26 09:28 | 29.32324 | -81.13301 | 31920 ft | 460 kts | 184° |
| 2026-04-26 09:29 | 29.25969 | -81.12117 | 31932 ft | 470 kts | 166° |
| 2026-04-26 09:29 | 29.19762 | -81.09729 | 31926 ft | 470 kts | 165° |
| 2026-04-26 09:30 | 29.14605 | -81.07753 | 31935 ft | 470 kts | 165° |
| 2026-04-26 09:30 | 29.08399 | -81.05427 | 31933 ft | 470 kts | 165° |
| 2026-04-26 09:31 | 29.02182 | -81.03108 | 31927 ft | 470 kts | 165° |
| 2026-04-26 09:31 | 28.95969 | -81.00793 | 31931 ft | 470 kts | 165° |
| 2026-04-26 09:32 | 28.89757 | -80.98479 | 31930 ft | 469 kts | 165° |
| 2026-04-26 09:32 | 28.83546 | -80.96166 | 31915 ft | 469 kts | 165° |
| 2026-04-26 09:33 | 28.77338 | -80.93850 | 31927 ft | 469 kts | 165° |
| 2026-04-26 09:33 | 28.71241 | -80.91104 | 31918 ft | 472 kts | 160° |
| 2026-04-26 09:34 | 28.65204 | -80.88183 | 31925 ft | 471 kts | 161° |
| 2026-04-26 09:34 | 28.59148 | -80.85296 | 31920 ft | 471 kts | 161° |
| 2026-04-26 09:35 | 28.53106 | -80.82425 | 31919 ft | 471 kts | 161° |
| 2026-04-26 09:35 | 28.47100 | -80.79573 | 31909 ft | 471 kts | 161° |
| 2026-04-26 09:36 | 28.41062 | -80.76708 | 31910 ft | 470 kts | 161° |
| 2026-04-26 09:36 | 28.35032 | -80.73850 | 31908 ft | 469 kts | 161° |
| 2026-04-26 09:37 | 28.29001 | -80.70993 | 31892 ft | 469 kts | 161° |
| 2026-04-26 09:37 | 28.22984 | -80.68149 | 31892 ft | 469 kts | 161° |
| 2026-04-26 09:38 | 28.16808 | -80.65946 | 31904 ft | 464 kts | 169° |
| 2026-04-26 09:38 | 28.10567 | -80.64093 | 31919 ft | 463 kts | 169° |
| 2026-04-26 09:39 | 28.04336 | -80.62232 | 31933 ft | 463 kts | 169° |
| 2026-04-26 09:39 | 27.98110 | -80.60366 | 31926 ft | 463 kts | 169° |
| 2026-04-26 09:40 | 27.91866 | -80.58496 | 31918 ft | 464 kts | 169° |
| 2026-04-26 09:40 | 27.85628 | -80.56635 | 31923 ft | 463 kts | 169° |
| 2026-04-26 09:41 | 27.79390 | -80.54774 | 31941 ft | 463 kts | 169° |
| 2026-04-26 09:41 | 27.73157 | -80.52913 | 31931 ft | 463 kts | 169° |
| 2026-04-26 09:42 | 27.66928 | -80.51059 | 31937 ft | 464 kts | 169° |
| 2026-04-26 09:42 | 27.60782 | -80.48743 | 31934 ft | 466 kts | 164° |
| 2026-04-26 09:43 | 27.54658 | -80.46305 | 31937 ft | 467 kts | 165° |
| 2026-04-26 09:43 | 27.48576 | -80.43903 | 31942 ft | 467 kts | 165° |
| 2026-04-26 09:44 | 27.42446 | -80.41475 | 31944 ft | 467 kts | 165° |
| 2026-04-26 09:44 | 27.36316 | -80.39047 | 31938 ft | 467 kts | 165° |
| 2026-04-26 09:45 | 27.30182 | -80.36623 | 31935 ft | 467 kts | 165° |
| 2026-04-26 09:45 | 27.24044 | -80.34200 | 31930 ft | 468 kts | 164° |
| 2026-04-26 09:46 | 27.17899 | -80.31789 | 31943 ft | 468 kts | 165° |
| 2026-04-26 09:46 | 27.11741 | -80.29403 | 31931 ft | 468 kts | 165° |
| 2026-04-26 09:47 | 27.05587 | -80.27017 | 31941 ft | 468 kts | 165° |
| 2026-04-26 09:47 | 26.99442 | -80.24633 | 31668 ft | 466 kts | 165° |
| 2026-04-26 09:47 | 26.96381 | -80.23446 | 30537 ft | 466 kts | 165° |
| 2026-04-26 09:48 | 26.93306 | -80.22259 | 29134 ft | 471 kts | 164° |
| 2026-04-26 09:48 | 26.90180 | -80.21056 | 27711 ft | 476 kts | 164° |
| 2026-04-26 09:48 | 26.87042 | -80.19847 | 26399 ft | 477 kts | 163° |
| 2026-04-26 09:48 | 26.83910 | -80.18650 | 25116 ft | 475 kts | 164° |
| 2026-04-26 09:49 | 26.80775 | -80.17488 | 23757 ft | 475 kts | 164° |
| 2026-04-26 09:49 | 26.77637 | -80.16336 | 22405 ft | 474 kts | 164° |
| 2026-04-26 09:49 | 26.74526 | -80.15188 | 21382 ft | 466 kts | 164° |
| 2026-04-26 09:49 | 26.71511 | -80.14079 | 20778 ft | 446 kts | 165° |
| 2026-04-26 09:50 | 26.68578 | -80.13221 | 20231 ft | 427 kts | 168° |
| 2026-04-26 09:50 | 26.65735 | -80.12453 | 19682 ft | 412 kts | 168° |
| 2026-04-26 09:50 | 26.63000 | -80.11717 | 19169 ft | 397 kts | 168° |
| 2026-04-26 09:50 | 26.60371 | -80.11007 | 18694 ft | 383 kts | 168° |
| 2026-04-26 09:51 | 26.57809 | -80.10336 | 18061 ft | 374 kts | 169° |
| 2026-04-26 09:51 | 26.55294 | -80.09714 | 17344 ft | 368 kts | 169° |
| 2026-04-26 09:51 | 26.52802 | -80.09102 | 16597 ft | 364 kts | 169° |
| 2026-04-26 09:51 | 26.50374 | -80.08502 | 15845 ft | 360 kts | 169° |
| 2026-04-26 09:52 | 26.47910 | -80.07890 | 15075 ft | 357 kts | 169° |
| 2026-04-26 09:52 | 26.43152 | -80.06810 | 13705 ft | 354 kts | 171° |
| 2026-04-26 09:52 | 26.40696 | -80.06293 | 13189 ft | 351 kts | 171° |
| 2026-04-26 09:53 | 26.38321 | -80.05722 | 12794 ft | 349 kts | 169° |
| 2026-04-26 09:53 | 26.35972 | -80.05084 | 12502 ft | 342 kts | 168° |
| 2026-04-26 09:53 | 26.33706 | -80.04458 | 12295 ft | 330 kts | 168° |
| 2026-04-26 09:53 | 26.31515 | -80.03852 | 12120 ft | 317 kts | 168° |
| 2026-04-26 09:54 | 26.29408 | -80.03272 | 11964 ft | 310 kts | 168° |
| 2026-04-26 09:54 | 26.27308 | -80.02697 | 11829 ft | 311 kts | 168° |
| 2026-04-26 09:54 | 26.25189 | -80.02315 | 11684 ft | 307 kts | 183° |
| 2026-04-26 09:54 | 26.23090 | -80.02611 | 11568 ft | 304 kts | 194° |
| 2026-04-26 09:55 | 26.21019 | -80.03106 | 11447 ft | 303 kts | 195° |
| 2026-04-26 09:55 | 26.18961 | -80.03611 | 11324 ft | 303 kts | 194° |
| 2026-04-26 09:55 | 26.16901 | -80.04105 | 11203 ft | 303 kts | 194° |
| 2026-04-26 09:55 | 26.14843 | -80.04587 | 11082 ft | 302 kts | 194° |
| 2026-04-26 09:56 | 26.12786 | -80.05062 | 10977 ft | 302 kts | 193° |
| 2026-04-26 09:56 | 26.10730 | -80.05534 | 10967 ft | 302 kts | 193° |
| 2026-04-26 09:56 | 26.08669 | -80.06005 | 10977 ft | 302 kts | 193° |
| 2026-04-26 09:56 | 26.06918 | -80.06406 | 10990 ft | 302 kts | 193° |
| 2026-04-26 09:57 | 26.04870 | -80.06910 | 10729 ft | 300 kts | 195° |
| 2026-04-26 09:57 | 26.02852 | -80.07441 | 10365 ft | 297 kts | 195° |
| 2026-04-26 09:57 | 26.00844 | -80.07970 | 10041 ft | 296 kts | 194° |
| 2026-04-26 09:57 | 25.98849 | -80.08491 | 9818 ft | 295 kts | 194° |
| 2026-04-26 09:58 | 25.96836 | -80.09016 | 9662 ft | 297 kts | 194° |
| 2026-04-26 09:58 | 25.94822 | -80.09542 | 9519 ft | 297 kts | 194° |
| 2026-04-26 09:58 | 25.92814 | -80.10074 | 9405 ft | 297 kts | 196° |
| 2026-04-26 09:58 | 25.90940 | -80.10916 | 9282 ft | 287 kts | 207° |
| 2026-04-26 09:59 | 25.89191 | -80.11933 | 9149 ft | 285 kts | 208° |
| 2026-04-26 09:59 | 25.87379 | -80.13006 | 9050 ft | 299 kts | 208° |
| 2026-04-26 09:59 | 25.85550 | -80.14078 | 8893 ft | 295 kts | 208° |
| 2026-04-26 09:59 | 25.83737 | -80.15134 | 8761 ft | 294 kts | 208° |
| 2026-04-26 10:00 | 25.81924 | -80.16188 | 8615 ft | 294 kts | 208° |
| 2026-04-26 10:00 | 25.80122 | -80.17233 | 8486 ft | 293 kts | 208° |
| 2026-04-26 10:00 | 25.78310 | -80.18279 | 8343 ft | 293 kts | 207° |
| 2026-04-26 10:00 | 25.76509 | -80.19320 | 8200 ft | 291 kts | 207° |
| 2026-04-26 10:01 | 25.74715 | -80.20356 | 8060 ft | 290 kts | 208° |
| 2026-04-26 10:01 | 25.73056 | -80.21607 | 7958 ft | 289 kts | 226° |
| 2026-04-26 10:01 | 25.72012 | -80.23473 | 7841 ft | 285 kts | 251° |
| 2026-04-26 10:01 | 25.71528 | -80.25598 | 7420 ft | 283 kts | 259° |
| 2026-04-26 10:02 | 25.71177 | -80.27713 | 7155 ft | 275 kts | 264° |
| 2026-04-26 10:02 | 25.71072 | -80.29793 | 6985 ft | 265 kts | 268° |
| 2026-04-26 10:02 | 25.71007 | -80.31793 | 6742 ft | 258 kts | 268° |
| 2026-04-26 10:02 | 25.70934 | -80.33736 | 6399 ft | 255 kts | 268° |
| 2026-04-26 10:03 | 25.70853 | -80.35723 | 6017 ft | 254 kts | 267° |
| 2026-04-26 10:03 | 25.70771 | -80.37642 | 5716 ft | 249 kts | 267° |
| 2026-04-26 10:03 | 25.70687 | -80.39541 | 5509 ft | 238 kts | 267° |
| 2026-04-26 10:03 | 25.70605 | -80.41343 | 5210 ft | 232 kts | 267° |
| 2026-04-26 10:04 | 25.70523 | -80.43129 | 5016 ft | 231 kts | 266° |
| 2026-04-26 10:04 | 25.70430 | -80.44881 | 4816 ft | 229 kts | 264° |
| 2026-04-26 10:04 | 25.70289 | -80.46632 | 4419 ft | 228 kts | 264° |
| 2026-04-26 10:04 | 25.70139 | -80.48382 | 4080 ft | 228 kts | 263° |
| 2026-04-26 10:05 | 25.69991 | -80.50138 | 4000 ft | 229 kts | 263° |
| 2026-04-26 10:05 | 25.69849 | -80.51887 | 3948 ft | 226 kts | 263° |
| 2026-04-26 10:05 | 25.69710 | -80.53615 | 3575 ft | 224 kts | 263° |
| 2026-04-26 10:05 | 25.69575 | -80.55339 | 3174 ft | 226 kts | 264° |
| 2026-04-26 10:06 | 25.69815 | -80.57055 | 3014 ft | 229 kts | 294° |
| 2026-04-26 10:06 | 25.70812 | -80.58421 | 2993 ft | 231 kts | 326° |
| 2026-04-26 10:06 | 25.72300 | -80.59053 | 3008 ft | 231 kts | 356° |
| 2026-04-26 10:06 | 25.73865 | -80.58804 | 3018 ft | 228 kts | 26° |
| 2026-04-26 10:07 | 25.75121 | -80.57777 | 3018 ft | 225 kts | 54° |
| 2026-04-26 10:07 | 25.75816 | -80.56259 | 3022 ft | 221 kts | 76° |
| 2026-04-26 10:07 | 25.76214 | -80.54610 | 3025 ft | 221 kts | 78° |
| 2026-04-26 10:07 | 25.76612 | -80.52966 | 3023 ft | 221 kts | 76° |
| 2026-04-26 10:08 | 25.77066 | -80.51335 | 3025 ft | 221 kts | 71° |
| 2026-04-26 10:08 | 25.77582 | -80.49732 | 3020 ft | 221 kts | 75° |
| 2026-04-26 10:08 | 25.77934 | -80.48070 | 2944 ft | 218 kts | 83° |
| 2026-04-26 10:08 | 25.78055 | -80.46445 | 2766 ft | 205 kts | 94° |
| 2026-04-26 10:09 | 25.78074 | -80.44893 | 2531 ft | 197 kts | 87° |
| 2026-04-26 10:09 | 25.78127 | -80.43398 | 2258 ft | 190 kts | 88° |
| 2026-04-26 10:09 | 25.78186 | -80.41961 | 2015 ft | 184 kts | 89° |
| 2026-04-26 10:09 | 25.78243 | -80.40564 | 1744 ft | 178 kts | 89° |
| 2026-04-26 10:10 | 25.78299 | -80.39220 | 1478 ft | 170 kts | 89° |
| 2026-04-26 10:10 | 25.78352 | -80.37946 | 1260 ft | 156 kts | 89° |
| 2026-04-26 10:10 | 25.78400 | -80.36806 | 1043 ft | 145 kts | 89° |
| 2026-04-26 10:10 | 25.78446 | -80.35687 | 857 ft | 145 kts | 89° |
| 2026-04-26 10:11 | 25.78492 | -80.34572 | 667 ft | 144 kts | 89° |
| 2026-04-26 10:11 | 25.78537 | -80.33463 | 473 ft | 144 kts | 89° |
| 2026-04-26 10:11 | 25.78576 | -80.32354 | 282 ft | 144 kts | 89° |
| 2026-04-26 10:11 | 25.78621 | -80.31243 | 100 ft | 144 kts | 88° |
| 2026-04-26 10:12 | 25.78664 | -80.30157 | 21 ft | 134 kts | 88° |
| 2026-04-26 10:12 | 25.78697 | -80.29313 | 21 ft | 81 kts | 88° |
| 2026-04-26 10:12 | 25.78715 | -80.28799 | 21 ft | 45 kts | 88° |
| 2026-04-26 10:12 | 25.78746 | -80.28589 | 20 ft | 23 kts | 74° |
| 2026-04-26 10:13 | 25.78801 | -80.28458 | 20 ft | 11 kts | 46° |
| 2026-04-26 10:13 | 25.78854 | -80.28394 | 21 ft | 12 kts | 48° |
| 2026-04-26 10:13 | 25.78884 | -80.28305 | 23 ft | 14 kts | 88° |
| 2026-04-26 10:13 | 25.78890 | -80.28193 | 21 ft | 15 kts | 86° |
| 2026-04-26 10:14 | 25.78902 | -80.28072 | 22 ft | 17 kts | 82° |
| 2026-04-26 10:14 | 25.78935 | -80.27943 | 21 ft | 18 kts | 82° |
| 2026-04-26 10:14 | 25.78942 | -80.27805 | 21 ft | 19 kts | 89° |
| 2026-04-26 10:14 | 25.78945 | -80.27666 | 20 ft | 7 kts | 85° |
| 2026-04-26 10:15 | 25.78956 | -80.27604 | 20 ft | 9 kts | 78° |
| 2026-04-26 10:15 | 25.78984 | -80.27545 | 21 ft | 4 kts | 10° |
| 2026-04-26 10:15 | 25.79015 | -80.27542 | 20 ft | 5 kts | 349° |
| 2026-04-26 10:15 | 25.79027 | -80.27569 | 20 ft | 0 kts | 259° |
| 2026-04-26 10:16 | 25.79025 | -80.27585 | 20 ft | 3 kts | 267° |
| 2026-04-26 10:16 | 25.79024 | -80.27608 | 20 ft | 0 kts | 267° |